sensor_id;sensor_type;location;lat;lon;timestamp;P1;durP1;ratioP1;P2;durP2;ratioP2
9422;SDS011;4750;49.506;10.400;2022-08-14T00:02:28;5.90;;;5.33;;
9422;SDS011;4750;49.506;10.400;2022-08-14T00:05:13;6.33;;;5.73;;
9422;SDS011;4750;49.506;10.400;2022-08-14T00:08:01;5.83;;;5.33;;
9422;SDS011;4750;49.506;10.400;2022-08-14T00:10:46;6.53;;;6.03;;
9422;SDS011;4750;49.506;10.400;2022-08-14T00:13:31;5.90;;;5.30;;
9422;SDS011;4750;49.506;10.400;2022-08-14T00:16:15;6.07;;;5.57;;
9422;SDS011;4750;49.506;10.400;2022-08-14T00:18:59;6.63;;;5.40;;
9422;SDS011;4750;49.506;10.400;2022-08-14T00:21:43;6.80;;;6.30;;
9422;SDS011;4750;49.506;10.400;2022-08-14T00:24:26;6.20;;;5.70;;
9422;SDS011;4750;49.506;10.400;2022-08-14T00:27:10;6.80;;;6.20;;
9422;SDS011;4750;49.506;10.400;2022-08-14T00:29:54;7.70;;;7.10;;
9422;SDS011;4750;49.506;10.400;2022-08-14T00:32:38;8.33;;;7.37;;
9422;SDS011;4750;49.506;10.400;2022-08-14T00:35:22;7.77;;;7.07;;
9422;SDS011;4750;49.506;10.400;2022-08-14T00:38:06;7.93;;;7.23;;
9422;SDS011;4750;49.506;10.400;2022-08-14T00:40:50;8.43;;;6.80;;
9422;SDS011;4750;49.506;10.400;2022-08-14T00:43:35;7.70;;;7.03;;
9422;SDS011;4750;49.506;10.400;2022-08-14T00:46:19;8.33;;;7.43;;
9422;SDS011;4750;49.506;10.400;2022-08-14T00:49:04;8.50;;;7.67;;
9422;SDS011;4750;49.506;10.400;2022-08-14T00:51:48;8.17;;;7.37;;
9422;SDS011;4750;49.506;10.400;2022-08-14T00:54:35;8.27;;;7.37;;
9422;SDS011;4750;49.506;10.400;2022-08-14T00:57:22;9.00;;;7.70;;
9422;SDS011;4750;49.506;10.400;2022-08-14T01:00:10;8.83;;;8.13;;
9422;SDS011;4750;49.506;10.400;2022-08-14T01:02:56;8.10;;;7.40;;
9422;SDS011;4750;49.506;10.400;2022-08-14T01:05:40;7.70;;;6.90;;
9422;SDS011;4750;49.506;10.400;2022-08-14T01:08:33;8.17;;;7.47;;
9422;SDS011;4750;49.506;10.400;2022-08-14T01:11:18;8.37;;;7.67;;
9422;SDS011;4750;49.506;10.400;2022-08-14T01:14:02;8.13;;;7.40;;
9422;SDS011;4750;49.506;10.400;2022-08-14T01:16:47;7.53;;;6.83;;
9422;SDS011;4750;49.506;10.400;2022-08-14T01:19:31;7.00;;;6.40;;
9422;SDS011;4750;49.506;10.400;2022-08-14T01:22:34;7.17;;;6.47;;
9422;SDS011;4750;49.506;10.400;2022-08-14T01:25:19;7.70;;;7.00;;
9422;SDS011;4750;49.506;10.400;2022-08-14T01:28:03;7.40;;;6.80;;
9422;SDS011;4750;49.506;10.400;2022-08-14T01:30:47;7.30;;;6.70;;
9422;SDS011;4750;49.506;10.400;2022-08-14T01:33:33;8.10;;;7.40;;
9422;SDS011;4750;49.506;10.400;2022-08-14T01:36:23;8.37;;;7.67;;
9422;SDS011;4750;49.506;10.400;2022-08-14T01:39:11;12.37;;;8.23;;
9422;SDS011;4750;49.506;10.400;2022-08-14T01:41:56;9.30;;;8.50;;
9422;SDS011;4750;49.506;10.400;2022-08-14T01:44:44;9.40;;;8.50;;
9422;SDS011;4750;49.506;10.400;2022-08-14T01:47:35;9.33;;;8.43;;
9422;SDS011;4750;49.506;10.400;2022-08-14T01:50:19;8.77;;;7.87;;
9422;SDS011;4750;49.506;10.400;2022-08-14T01:53:03;8.50;;;7.80;;
9422;SDS011;4750;49.506;10.400;2022-08-14T01:55:47;8.33;;;7.60;;
9422;SDS011;4750;49.506;10.400;2022-08-14T01:58:34;9.10;;;8.20;;
9422;SDS011;4750;49.506;10.400;2022-08-14T02:01:18;9.17;;;8.20;;
9422;SDS011;4750;49.506;10.400;2022-08-14T02:04:03;9.80;;;9.00;;
9422;SDS011;4750;49.506;10.400;2022-08-14T02:06:48;9.67;;;8.43;;
9422;SDS011;4750;49.506;10.400;2022-08-14T02:09:36;9.03;;;8.23;;
9422;SDS011;4750;49.506;10.400;2022-08-14T02:12:21;8.87;;;8.17;;
9422;SDS011;4750;49.506;10.400;2022-08-14T02:15:07;9.50;;;8.70;;
9422;SDS011;4750;49.506;10.400;2022-08-14T02:17:51;9.40;;;8.50;;
9422;SDS011;4750;49.506;10.400;2022-08-14T02:20:35;10.23;;;9.13;;
9422;SDS011;4750;49.506;10.400;2022-08-14T02:23:19;10.53;;;8.83;;
9422;SDS011;4750;49.506;10.400;2022-08-14T02:26:13;10.03;;;9.13;;
9422;SDS011;4750;49.506;10.400;2022-08-14T02:29:04;10.07;;;9.17;;
9422;SDS011;4750;49.506;10.400;2022-08-14T02:31:54;9.67;;;8.77;;
9422;SDS011;4750;49.506;10.400;2022-08-14T02:34:39;11.53;;;8.90;;
9422;SDS011;4750;49.506;10.400;2022-08-14T02:37:23;10.10;;;9.10;;
9422;SDS011;4750;49.506;10.400;2022-08-14T02:40:07;9.57;;;8.77;;
9422;SDS011;4750;49.506;10.400;2022-08-14T02:42:52;10.20;;;9.40;;
9422;SDS011;4750;49.506;10.400;2022-08-14T02:45:36;9.67;;;8.87;;
9422;SDS011;4750;49.506;10.400;2022-08-14T02:48:19;10.03;;;9.13;;
9422;SDS011;4750;49.506;10.400;2022-08-14T02:51:04;10.10;;;9.20;;
9422;SDS011;4750;49.506;10.400;2022-08-14T02:53:51;9.80;;;9.00;;
9422;SDS011;4750;49.506;10.400;2022-08-14T02:56:36;9.90;;;9.10;;
9422;SDS011;4750;49.506;10.400;2022-08-14T02:59:22;10.37;;;9.47;;
9422;SDS011;4750;49.506;10.400;2022-08-14T03:02:11;10.20;;;9.37;;
9422;SDS011;4750;49.506;10.400;2022-08-14T03:04:55;9.93;;;9.13;;
9422;SDS011;4750;49.506;10.400;2022-08-14T03:07:39;9.43;;;8.70;;
9422;SDS011;4750;49.506;10.400;2022-08-14T03:10:23;9.97;;;9.07;;
9422;SDS011;4750;49.506;10.400;2022-08-14T03:13:07;9.70;;;8.87;;
9422;SDS011;4750;49.506;10.400;2022-08-14T03:15:52;10.67;;;9.17;;
9422;SDS011;4750;49.506;10.400;2022-08-14T03:18:37;9.50;;;8.70;;
9422;SDS011;4750;49.506;10.400;2022-08-14T03:21:27;10.20;;;9.20;;
9422;SDS011;4750;49.506;10.400;2022-08-14T03:24:15;9.87;;;9.07;;
9422;SDS011;4750;49.506;10.400;2022-08-14T03:26:59;10.93;;;9.97;;
9422;SDS011;4750;49.506;10.400;2022-08-14T03:29:43;10.03;;;9.23;;
9422;SDS011;4750;49.506;10.400;2022-08-14T03:32:27;10.63;;;9.73;;
9422;SDS011;4750;49.506;10.400;2022-08-14T03:35:13;10.33;;;9.43;;
9422;SDS011;4750;49.506;10.400;2022-08-14T03:38:04;10.70;;;9.73;;
9422;SDS011;4750;49.506;10.400;2022-08-14T03:40:54;10.40;;;9.50;;
9422;SDS011;4750;49.506;10.400;2022-08-14T03:43:38;10.47;;;9.53;;
9422;SDS011;4750;49.506;10.400;2022-08-14T03:46:23;11.13;;;10.00;;
9422;SDS011;4750;49.506;10.400;2022-08-14T03:49:10;10.83;;;9.83;;
9422;SDS011;4750;49.506;10.400;2022-08-14T03:51:54;9.67;;;8.87;;
9422;SDS011;4750;49.506;10.400;2022-08-14T03:54:38;10.40;;;9.43;;
9422;SDS011;4750;49.506;10.400;2022-08-14T03:57:22;10.57;;;9.67;;
9422;SDS011;4750;49.506;10.400;2022-08-14T04:00:08;10.20;;;9.40;;
9422;SDS011;4750;49.506;10.400;2022-08-14T04:02:57;10.90;;;10.00;;
9422;SDS011;4750;49.506;10.400;2022-08-14T04:05:41;10.67;;;9.77;;
9422;SDS011;4750;49.506;10.400;2022-08-14T04:08:24;11.60;;;10.47;;
9422;SDS011;4750;49.506;10.400;2022-08-14T04:11:09;11.10;;;10.00;;
9422;SDS011;4750;49.506;10.400;2022-08-14T04:13:53;10.10;;;9.27;;
9422;SDS011;4750;49.506;10.400;2022-08-14T04:16:37;10.87;;;9.87;;
9422;SDS011;4750;49.506;10.400;2022-08-14T04:19:24;10.63;;;9.60;;
9422;SDS011;4750;49.506;10.400;2022-08-14T04:22:08;10.77;;;9.70;;
9422;SDS011;4750;49.506;10.400;2022-08-14T04:24:52;10.80;;;9.70;;
9422;SDS011;4750;49.506;10.400;2022-08-14T04:27:36;11.10;;;10.10;;
9422;SDS011;4750;49.506;10.400;2022-08-14T04:30:20;10.87;;;9.77;;
9422;SDS011;4750;49.506;10.400;2022-08-14T04:33:05;10.97;;;9.87;;
9422;SDS011;4750;49.506;10.400;2022-08-14T04:35:50;11.07;;;10.17;;
9422;SDS011;4750;49.506;10.400;2022-08-14T04:38:35;10.97;;;10.07;;
9422;SDS011;4750;49.506;10.400;2022-08-14T04:41:38;10.93;;;10.03;;
9422;SDS011;4750;49.506;10.400;2022-08-14T04:44:41;11.37;;;10.43;;
9422;SDS011;4750;49.506;10.400;2022-08-14T04:47:25;11.10;;;10.20;;
9422;SDS011;4750;49.506;10.400;2022-08-14T04:50:28;10.83;;;9.83;;
9422;SDS011;4750;49.506;10.400;2022-08-14T04:53:14;10.90;;;9.97;;
9422;SDS011;4750;49.506;10.400;2022-08-14T04:56:02;10.80;;;9.90;;
9422;SDS011;4750;49.506;10.400;2022-08-14T04:58:50;11.10;;;10.00;;
9422;SDS011;4750;49.506;10.400;2022-08-14T05:01:40;10.40;;;9.50;;
9422;SDS011;4750;49.506;10.400;2022-08-14T05:04:27;10.77;;;9.87;;
9422;SDS011;4750;49.506;10.400;2022-08-14T05:07:11;11.00;;;10.00;;
9422;SDS011;4750;49.506;10.400;2022-08-14T05:09:55;11.33;;;10.07;;
9422;SDS011;4750;49.506;10.400;2022-08-14T05:12:39;11.57;;;10.57;;
9422;SDS011;4750;49.506;10.400;2022-08-14T05:15:23;10.57;;;9.67;;
9422;SDS011;4750;49.506;10.400;2022-08-14T05:18:13;11.10;;;9.97;;
9422;SDS011;4750;49.506;10.400;2022-08-14T05:21:00;10.50;;;9.60;;
9422;SDS011;4750;49.506;10.400;2022-08-14T05:23:46;10.47;;;9.37;;
9422;SDS011;4750;49.506;10.400;2022-08-14T05:26:30;9.03;;;8.23;;
9422;SDS011;4750;49.506;10.400;2022-08-14T05:29:14;8.07;;;7.37;;
9422;SDS011;4750;49.506;10.400;2022-08-14T05:31:59;8.50;;;7.70;;
9422;SDS011;4750;49.506;10.400;2022-08-14T05:34:49;8.40;;;7.80;;
9422;SDS011;4750;49.506;10.400;2022-08-14T05:37:34;8.90;;;8.03;;
9422;SDS011;4750;49.506;10.400;2022-08-14T05:40:18;7.50;;;6.90;;
9422;SDS011;4750;49.506;10.400;2022-08-14T05:43:02;7.70;;;6.90;;
9422;SDS011;4750;49.506;10.400;2022-08-14T05:45:46;7.73;;;6.83;;
9422;SDS011;4750;49.506;10.400;2022-08-14T05:48:32;6.60;;;6.03;;
9422;SDS011;4750;49.506;10.400;2022-08-14T05:51:16;6.60;;;6.10;;
9422;SDS011;4750;49.506;10.400;2022-08-14T05:54:01;6.40;;;5.90;;
9422;SDS011;4750;49.506;10.400;2022-08-14T05:56:44;7.90;;;6.80;;
9422;SDS011;4750;49.506;10.400;2022-08-14T05:59:29;7.20;;;6.60;;
9422;SDS011;4750;49.506;10.400;2022-08-14T06:02:13;7.03;;;6.43;;
9422;SDS011;4750;49.506;10.400;2022-08-14T06:04:57;6.97;;;6.37;;
9422;SDS011;4750;49.506;10.400;2022-08-14T06:07:40;8.70;;;6.60;;
9422;SDS011;4750;49.506;10.400;2022-08-14T06:10:25;6.97;;;6.43;;
9422;SDS011;4750;49.506;10.400;2022-08-14T06:13:11;7.50;;;6.73;;
9422;SDS011;4750;49.506;10.400;2022-08-14T06:15:56;6.70;;;6.10;;
9422;SDS011;4750;49.506;10.400;2022-08-14T06:18:40;7.27;;;6.67;;
9422;SDS011;4750;49.506;10.400;2022-08-14T06:21:24;6.53;;;6.03;;
9422;SDS011;4750;49.506;10.400;2022-08-14T06:24:08;6.90;;;6.40;;
9422;SDS011;4750;49.506;10.400;2022-08-14T06:26:52;6.67;;;6.17;;
9422;SDS011;4750;49.506;10.400;2022-08-14T06:29:37;7.27;;;6.67;;
9422;SDS011;4750;49.506;10.400;2022-08-14T06:32:21;7.47;;;6.43;;
9422;SDS011;4750;49.506;10.400;2022-08-14T06:35:06;6.50;;;6.00;;
9422;SDS011;4750;49.506;10.400;2022-08-14T06:37:52;6.53;;;5.77;;
9422;SDS011;4750;49.506;10.400;2022-08-14T06:40:38;6.50;;;5.90;;
9422;SDS011;4750;49.506;10.400;2022-08-14T06:43:22;6.20;;;5.70;;
9422;SDS011;4750;49.506;10.400;2022-08-14T06:46:06;6.47;;;5.97;;
9422;SDS011;4750;49.506;10.400;2022-08-14T06:48:51;6.57;;;5.80;;
9422;SDS011;4750;49.506;10.400;2022-08-14T06:51:35;6.07;;;5.38;;
9422;SDS011;4750;49.506;10.400;2022-08-14T06:54:20;6.72;;;5.55;;
9422;SDS011;4750;49.506;10.400;2022-08-14T06:57:04;5.53;;;5.13;;
9422;SDS011;4750;49.506;10.400;2022-08-14T06:59:49;5.75;;;5.20;;
9422;SDS011;4750;49.506;10.400;2022-08-14T07:02:33;5.87;;;5.30;;
9422;SDS011;4750;49.506;10.400;2022-08-14T07:05:37;5.53;;;5.13;;
9422;SDS011;4750;49.506;10.400;2022-08-14T07:08:33;5.53;;;5.10;;
9422;SDS011;4750;49.506;10.400;2022-08-14T07:11:19;5.40;;;4.90;;
9422;SDS011;4750;49.506;10.400;2022-08-14T07:14:03;5.70;;;5.20;;
9422;SDS011;4750;49.506;10.400;2022-08-14T07:16:47;6.20;;;5.70;;
9422;SDS011;4750;49.506;10.400;2022-08-14T07:19:31;8.60;;;5.30;;
9422;SDS011;4750;49.506;10.400;2022-08-14T07:22:15;6.03;;;5.43;;
9422;SDS011;4750;49.506;10.400;2022-08-14T07:24:59;6.03;;;5.53;;
9422;SDS011;4750;49.506;10.400;2022-08-14T07:27:43;5.80;;;5.30;;
9422;SDS011;4750;49.506;10.400;2022-08-14T07:30:27;6.97;;;5.37;;
9422;SDS011;4750;49.506;10.400;2022-08-14T07:33:12;5.10;;;4.70;;
9422;SDS011;4750;49.506;10.400;2022-08-14T07:35:58;5.03;;;4.50;;
9422;SDS011;4750;49.506;10.400;2022-08-14T07:38:44;5.57;;;4.60;;
9422;SDS011;4750;49.506;10.400;2022-08-14T07:41:27;5.50;;;5.00;;
9422;SDS011;4750;49.506;10.400;2022-08-14T07:44:12;5.30;;;4.90;;
9422;SDS011;4750;49.506;10.400;2022-08-14T07:46:56;5.33;;;4.83;;
9422;SDS011;4750;49.506;10.400;2022-08-14T07:49:41;5.50;;;5.10;;
9422;SDS011;4750;49.506;10.400;2022-08-14T07:52:27;5.60;;;5.10;;
9422;SDS011;4750;49.506;10.400;2022-08-14T07:55:12;5.30;;;4.90;;
9422;SDS011;4750;49.506;10.400;2022-08-14T07:57:57;5.67;;;5.17;;
9422;SDS011;4750;49.506;10.400;2022-08-14T08:00:41;5.17;;;4.77;;
9422;SDS011;4750;49.506;10.400;2022-08-14T08:03:26;5.40;;;4.90;;
9422;SDS011;4750;49.506;10.400;2022-08-14T08:06:15;6.67;;;4.70;;
9422;SDS011;4750;49.506;10.400;2022-08-14T08:08:59;5.37;;;4.67;;
9422;SDS011;4750;49.506;10.400;2022-08-14T08:11:45;5.47;;;4.97;;
9422;SDS011;4750;49.506;10.400;2022-08-14T08:14:30;5.23;;;4.73;;
9422;SDS011;4750;49.506;10.400;2022-08-14T08:17:17;4.87;;;4.47;;
9422;SDS011;4750;49.506;10.400;2022-08-14T08:20:03;5.47;;;4.97;;
9422;SDS011;4750;49.506;10.400;2022-08-14T08:22:48;4.87;;;4.37;;
9422;SDS011;4750;49.506;10.400;2022-08-14T08:25:34;5.27;;;4.63;;
9422;SDS011;4750;49.506;10.400;2022-08-14T08:28:22;5.37;;;4.87;;
9422;SDS011;4750;49.506;10.400;2022-08-14T08:31:06;4.93;;;4.47;;
9422;SDS011;4750;49.506;10.400;2022-08-14T08:33:51;4.77;;;4.37;;
9422;SDS011;4750;49.506;10.400;2022-08-14T08:36:39;4.40;;;4.00;;
9422;SDS011;4750;49.506;10.400;2022-08-14T08:39:24;7.20;;;4.17;;
9422;SDS011;4750;49.506;10.400;2022-08-14T08:42:08;4.50;;;4.20;;
9422;SDS011;4750;49.506;10.400;2022-08-14T08:44:53;4.03;;;3.73;;
9422;SDS011;4750;49.506;10.400;2022-08-14T08:47:40;4.60;;;4.13;;
9422;SDS011;4750;49.506;10.400;2022-08-14T08:50:26;4.40;;;4.00;;
9422;SDS011;4750;49.506;10.400;2022-08-14T08:53:12;4.13;;;3.83;;
9422;SDS011;4750;49.506;10.400;2022-08-14T08:55:57;4.67;;;3.70;;
9422;SDS011;4750;49.506;10.400;2022-08-14T08:58:41;4.00;;;3.67;;
9422;SDS011;4750;49.506;10.400;2022-08-14T09:01:29;3.97;;;3.67;;
9422;SDS011;4750;49.506;10.400;2022-08-14T09:04:13;5.80;;;3.87;;
9422;SDS011;4750;49.506;10.400;2022-08-14T09:06:57;4.27;;;3.87;;
9422;SDS011;4750;49.506;10.400;2022-08-14T09:09:41;4.30;;;3.80;;
9422;SDS011;4750;49.506;10.400;2022-08-14T09:12:34;3.87;;;3.57;;
9422;SDS011;4750;49.506;10.400;2022-08-14T09:15:18;7.47;;;3.90;;
9422;SDS011;4750;49.506;10.400;2022-08-14T09:18:02;3.87;;;3.63;;
9422;SDS011;4750;49.506;10.400;2022-08-14T09:20:47;3.83;;;3.50;;
9422;SDS011;4750;49.506;10.400;2022-08-14T09:23:35;3.60;;;3.30;;
9422;SDS011;4750;49.506;10.400;2022-08-14T09:26:20;3.43;;;3.23;;
9422;SDS011;4750;49.506;10.400;2022-08-14T09:29:04;3.63;;;3.43;;
9422;SDS011;4750;49.506;10.400;2022-08-14T09:31:51;4.90;;;3.47;;
9422;SDS011;4750;49.506;10.400;2022-08-14T09:34:42;5.40;;;3.50;;
9422;SDS011;4750;49.506;10.400;2022-08-14T09:37:54;3.40;;;3.10;;
9422;SDS011;4750;49.506;10.400;2022-08-14T09:47:12;3.50;;;3.13;;
9422;SDS011;4750;49.506;10.400;2022-08-14T09:49:57;3.83;;;3.40;;
9422;SDS011;4750;49.506;10.400;2022-08-14T09:53:16;5.17;;;3.10;;
9422;SDS011;4750;49.506;10.400;2022-08-14T09:55:57;3.43;;;3.13;;
9422;SDS011;4750;49.506;10.400;2022-08-14T09:58:43;3.20;;;2.90;;
9422;SDS011;4750;49.506;10.400;2022-08-14T10:01:34;3.40;;;3.00;;
9422;SDS011;4750;49.506;10.400;2022-08-14T10:04:23;3.80;;;3.20;;
9422;SDS011;4750;49.506;10.400;2022-08-14T10:07:09;5.27;;;3.10;;
9422;SDS011;4750;49.506;10.400;2022-08-14T10:09:53;3.23;;;3.03;;
9422;SDS011;4750;49.506;10.400;2022-08-14T10:12:44;3.33;;;3.03;;
9422;SDS011;4750;49.506;10.400;2022-08-14T10:15:31;3.50;;;2.67;;
9422;SDS011;4750;49.506;10.400;2022-08-14T10:18:25;3.40;;;3.10;;
9422;SDS011;4750;49.506;10.400;2022-08-14T10:21:14;3.10;;;2.80;;
9422;SDS011;4750;49.506;10.400;2022-08-14T10:24:01;2.97;;;2.77;;
9422;SDS011;4750;49.506;10.400;2022-08-14T10:26:51;2.43;;;2.33;;
9422;SDS011;4750;49.506;10.400;2022-08-14T10:29:37;5.20;;;2.80;;
9422;SDS011;4750;49.506;10.400;2022-08-14T10:32:23;2.20;;;2.10;;
9422;SDS011;4750;49.506;10.400;2022-08-14T10:35:10;2.72;;;2.35;;
9422;SDS011;4750;49.506;10.400;2022-08-14T10:37:58;2.67;;;2.43;;
9422;SDS011;4750;49.506;10.400;2022-08-14T10:40:43;3.83;;;2.30;;
9422;SDS011;4750;49.506;10.400;2022-08-14T10:43:27;2.75;;;2.55;;
9422;SDS011;4750;49.506;10.400;2022-08-14T10:46:12;5.07;;;2.77;;
9422;SDS011;4750;49.506;10.400;2022-08-14T10:49:01;2.70;;;2.50;;
9422;SDS011;4750;49.506;10.400;2022-08-14T10:54:51;2.50;;;2.30;;
9422;SDS011;4750;49.506;10.400;2022-08-14T10:57:45;2.77;;;2.53;;
9422;SDS011;4750;49.506;10.400;2022-08-14T11:00:37;2.95;;;2.38;;
9422;SDS011;4750;49.506;10.400;2022-08-14T11:03:22;4.00;;;2.50;;
9422;SDS011;4750;49.506;10.400;2022-08-14T11:06:16;2.73;;;2.53;;
9422;SDS011;4750;49.506;10.400;2022-08-14T11:09:11;2.90;;;2.70;;
9422;SDS011;4750;49.506;10.400;2022-08-14T11:11:56;2.72;;;2.53;;
9422;SDS011;4750;49.506;10.400;2022-08-14T11:14:40;2.53;;;2.33;;
9422;SDS011;4750;49.506;10.400;2022-08-14T11:17:25;2.88;;;2.63;;
9422;SDS011;4750;49.506;10.400;2022-08-14T11:20:21;2.47;;;2.28;;
9422;SDS011;4750;49.506;10.400;2022-08-14T11:23:09;2.80;;;2.60;;
9422;SDS011;4750;49.506;10.400;2022-08-14T11:25:56;4.70;;;2.70;;
9422;SDS011;4750;49.506;10.400;2022-08-14T11:28:43;3.00;;;2.67;;
9422;SDS011;4750;49.506;10.400;2022-08-14T11:31:29;2.53;;;2.35;;
9422;SDS011;4750;49.506;10.400;2022-08-14T11:34:17;2.65;;;2.45;;
9422;SDS011;4750;49.506;10.400;2022-08-14T11:37:11;2.57;;;2.43;;
9422;SDS011;4750;49.506;10.400;2022-08-14T11:39:56;2.67;;;2.47;;
9422;SDS011;4750;49.506;10.400;2022-08-14T11:42:40;2.97;;;2.78;;
9422;SDS011;4750;49.506;10.400;2022-08-14T11:45:29;3.50;;;2.60;;
9422;SDS011;4750;49.506;10.400;2022-08-14T11:48:18;2.90;;;2.70;;
9422;SDS011;4750;49.506;10.400;2022-08-14T11:51:11;2.85;;;2.42;;
9422;SDS011;4750;49.506;10.400;2022-08-14T11:54:10;2.38;;;2.28;;
9422;SDS011;4750;49.506;10.400;2022-08-14T11:56:56;2.45;;;2.30;;
9422;SDS011;4750;49.506;10.400;2022-08-14T11:59:40;3.25;;;2.67;;
9422;SDS011;4750;49.506;10.400;2022-08-14T12:02:25;2.35;;;2.22;;
9422;SDS011;4750;49.506;10.400;2022-08-14T12:05:09;3.13;;;2.80;;
9422;SDS011;4750;49.506;10.400;2022-08-14T12:07:53;2.80;;;2.60;;
9422;SDS011;4750;49.506;10.400;2022-08-14T12:10:38;4.07;;;2.75;;
9422;SDS011;4750;49.506;10.400;2022-08-14T12:13:24;2.30;;;2.20;;
9422;SDS011;4750;49.506;10.400;2022-08-14T12:16:15;2.80;;;2.60;;
9422;SDS011;4750;49.506;10.400;2022-08-14T12:19:01;3.17;;;2.50;;
9422;SDS011;4750;49.506;10.400;2022-08-14T12:21:49;2.60;;;2.40;;
9422;SDS011;4750;49.506;10.400;2022-08-14T12:24:33;2.90;;;2.60;;
9422;SDS011;4750;49.506;10.400;2022-08-14T12:27:17;2.90;;;2.70;;
9422;SDS011;4750;49.506;10.400;2022-08-14T12:30:02;2.80;;;2.60;;
9422;SDS011;4750;49.506;10.400;2022-08-14T12:32:47;3.92;;;2.70;;
9422;SDS011;4750;49.506;10.400;2022-08-14T12:35:35;3.28;;;2.35;;
9422;SDS011;4750;49.506;10.400;2022-08-14T12:38:30;2.35;;;2.25;;
9422;SDS011;4750;49.506;10.400;2022-08-14T12:41:25;3.05;;;2.65;;
9422;SDS011;4750;49.506;10.400;2022-08-14T12:44:12;2.80;;;2.60;;
9422;SDS011;4750;49.506;10.400;2022-08-14T12:47:06;2.00;;;1.90;;
9422;SDS011;4750;49.506;10.400;2022-08-14T12:49:54;2.90;;;2.70;;
9422;SDS011;4750;49.506;10.400;2022-08-14T12:52:38;2.60;;;2.40;;
9422;SDS011;4750;49.506;10.400;2022-08-14T12:55:24;2.90;;;2.60;;
9422;SDS011;4750;49.506;10.400;2022-08-14T12:58:08;4.30;;;2.42;;
9422;SDS011;4750;49.506;10.400;2022-08-14T13:00:53;2.78;;;2.42;;
9422;SDS011;4750;49.506;10.400;2022-08-14T13:03:39;2.60;;;2.40;;
9422;SDS011;4750;49.506;10.400;2022-08-14T13:06:26;3.22;;;2.50;;
9422;SDS011;4750;49.506;10.400;2022-08-14T13:09:15;2.53;;;2.33;;
9422;SDS011;4750;49.506;10.400;2022-08-14T13:12:00;2.60;;;2.40;;
9422;SDS011;4750;49.506;10.400;2022-08-14T13:14:48;2.65;;;2.45;;
9422;SDS011;4750;49.506;10.400;2022-08-14T13:17:35;3.25;;;2.42;;
9422;SDS011;4750;49.506;10.400;2022-08-14T13:20:24;2.67;;;2.47;;
9422;SDS011;4750;49.506;10.400;2022-08-14T13:23:09;2.58;;;2.38;;
9422;SDS011;4750;49.506;10.400;2022-08-14T13:25:52;2.47;;;2.25;;
9422;SDS011;4750;49.506;10.400;2022-08-14T13:28:38;2.60;;;2.40;;
9422;SDS011;4750;49.506;10.400;2022-08-14T13:31:25;2.53;;;2.33;;
9422;SDS011;4750;49.506;10.400;2022-08-14T13:34:12;2.60;;;2.40;;
9422;SDS011;4750;49.506;10.400;2022-08-14T13:36:56;2.78;;;2.58;;
9422;SDS011;4750;49.506;10.400;2022-08-14T13:39:41;2.55;;;2.35;;
9422;SDS011;4750;49.506;10.400;2022-08-14T13:42:31;2.22;;;2.13;;
9422;SDS011;4750;49.506;10.400;2022-08-14T13:45:17;3.88;;;2.40;;
9422;SDS011;4750;49.506;10.400;2022-08-14T13:48:04;2.63;;;2.42;;
9422;SDS011;4750;49.506;10.400;2022-08-14T13:50:52;3.45;;;2.50;;
9422;SDS011;4750;49.506;10.400;2022-08-14T13:53:41;2.70;;;2.50;;
9422;SDS011;4750;49.506;10.400;2022-08-14T13:56:29;2.50;;;2.30;;
9422;SDS011;4750;49.506;10.400;2022-08-14T13:59:14;2.92;;;2.72;;
9422;SDS011;4750;49.506;10.400;2022-08-14T14:02:03;4.18;;;2.60;;
9422;SDS011;4750;49.506;10.400;2022-08-14T14:04:48;3.00;;;2.67;;
9422;SDS011;4750;49.506;10.400;2022-08-14T14:07:32;2.70;;;2.50;;
9422;SDS011;4750;49.506;10.400;2022-08-14T14:10:18;2.42;;;2.33;;
9422;SDS011;4750;49.506;10.400;2022-08-14T14:13:04;3.00;;;2.65;;
9422;SDS011;4750;49.506;10.400;2022-08-14T14:15:50;2.95;;;2.65;;
9422;SDS011;4750;49.506;10.400;2022-08-14T14:18:35;3.03;;;2.83;;
9422;SDS011;4750;49.506;10.400;2022-08-14T14:21:21;3.67;;;2.42;;
9422;SDS011;4750;49.506;10.400;2022-08-14T14:24:07;2.90;;;2.70;;
9422;SDS011;4750;49.506;10.400;2022-08-14T14:26:51;2.80;;;2.60;;
9422;SDS011;4750;49.506;10.400;2022-08-14T14:29:37;2.65;;;2.45;;
9422;SDS011;4750;49.506;10.400;2022-08-14T14:32:30;2.97;;;2.50;;
9422;SDS011;4750;49.506;10.400;2022-08-14T14:35:15;2.92;;;2.72;;
9422;SDS011;4750;49.506;10.400;2022-08-14T14:38:04;3.28;;;2.85;;
9422;SDS011;4750;49.506;10.400;2022-08-14T14:40:51;3.58;;;2.80;;
9422;SDS011;4750;49.506;10.400;2022-08-14T14:43:35;3.13;;;2.92;;
9422;SDS011;4750;49.506;10.400;2022-08-14T14:46:27;2.72;;;2.53;;
9422;SDS011;4750;49.506;10.400;2022-08-14T14:49:19;2.80;;;2.42;;
9422;SDS011;4750;49.506;10.400;2022-08-14T14:52:07;2.70;;;2.50;;
9422;SDS011;4750;49.506;10.400;2022-08-14T14:54:52;2.30;;;2.20;;
9422;SDS011;4750;49.506;10.400;2022-08-14T14:57:36;3.67;;;2.90;;
9422;SDS011;4750;49.506;10.400;2022-08-14T15:00:22;2.80;;;2.60;;
9422;SDS011;4750;49.506;10.400;2022-08-14T15:03:06;2.50;;;2.40;;
9422;SDS011;4750;49.506;10.400;2022-08-14T15:05:50;2.88;;;2.53;;
9422;SDS011;4750;49.506;10.400;2022-08-14T15:08:35;2.85;;;2.65;;
9422;SDS011;4750;49.506;10.400;2022-08-14T15:11:21;2.40;;;2.20;;
9422;SDS011;4750;49.506;10.400;2022-08-14T15:14:06;10.65;;;2.47;;
9422;SDS011;4750;49.506;10.400;2022-08-14T15:16:49;4.38;;;3.00;;
9422;SDS011;4750;49.506;10.400;2022-08-14T15:19:34;2.80;;;2.60;;
9422;SDS011;4750;49.506;10.400;2022-08-14T15:22:18;2.92;;;2.72;;
9422;SDS011;4750;49.506;10.400;2022-08-14T15:25:03;2.83;;;2.63;;
9422;SDS011;4750;49.506;10.400;2022-08-14T15:27:48;3.13;;;2.67;;
9422;SDS011;4750;49.506;10.400;2022-08-14T15:30:33;4.18;;;2.60;;
9422;SDS011;4750;49.506;10.400;2022-08-14T15:33:17;3.33;;;2.42;;
9422;SDS011;4750;49.506;10.400;2022-08-14T15:36:31;3.17;;;2.80;;
9422;SDS011;4750;49.506;10.400;2022-08-14T15:39:17;3.53;;;2.67;;
9422;SDS011;4750;49.506;10.400;2022-08-14T15:42:02;2.70;;;2.50;;
9422;SDS011;4750;49.506;10.400;2022-08-14T15:44:49;2.75;;;2.55;;
9422;SDS011;4750;49.506;10.400;2022-08-14T15:47:34;2.83;;;2.63;;
9422;SDS011;4750;49.506;10.400;2022-08-14T15:50:18;2.95;;;2.72;;
9422;SDS011;4750;49.506;10.400;2022-08-14T15:53:02;2.83;;;2.53;;
9422;SDS011;4750;49.506;10.400;2022-08-14T15:55:47;4.73;;;2.63;;
9422;SDS011;4750;49.506;10.400;2022-08-14T15:58:31;3.30;;;2.83;;
9422;SDS011;4750;49.506;10.400;2022-08-14T16:01:15;2.65;;;2.40;;
9422;SDS011;4750;49.506;10.400;2022-08-14T16:04:06;2.70;;;2.50;;
9422;SDS011;4750;49.506;10.400;2022-08-14T16:06:50;2.72;;;2.53;;
9422;SDS011;4750;49.506;10.400;2022-08-14T16:09:34;2.72;;;2.53;;
9422;SDS011;4750;49.506;10.400;2022-08-14T16:12:18;3.00;;;2.35;;
9422;SDS011;4750;49.506;10.400;2022-08-14T16:15:02;2.50;;;2.30;;
9422;SDS011;4750;49.506;10.400;2022-08-14T16:17:46;2.50;;;2.30;;
9422;SDS011;4750;49.506;10.400;2022-08-14T16:20:31;2.70;;;2.50;;
9422;SDS011;4750;49.506;10.400;2022-08-14T16:23:22;2.97;;;2.47;;
9422;SDS011;4750;49.506;10.400;2022-08-14T16:26:07;3.75;;;2.60;;
9422;SDS011;4750;49.506;10.400;2022-08-14T16:29:03;3.50;;;2.55;;
9422;SDS011;4750;49.506;10.400;2022-08-14T16:31:50;2.20;;;2.10;;
9422;SDS011;4750;49.506;10.400;2022-08-14T16:34:36;2.58;;;2.38;;
9422;SDS011;4750;49.506;10.400;2022-08-14T16:37:22;2.67;;;2.47;;
9422;SDS011;4750;49.506;10.400;2022-08-14T16:40:07;2.80;;;2.30;;
9422;SDS011;4750;49.506;10.400;2022-08-14T16:42:55;2.58;;;2.38;;
9422;SDS011;4750;49.506;10.400;2022-08-14T16:45:40;3.35;;;2.70;;
9422;SDS011;4750;49.506;10.400;2022-08-14T16:48:25;2.88;;;2.67;;
9422;SDS011;4750;49.506;10.400;2022-08-14T16:51:13;2.90;;;2.67;;
9422;SDS011;4750;49.506;10.400;2022-08-14T16:54:01;3.35;;;2.63;;
9422;SDS011;4750;49.506;10.400;2022-08-14T16:56:46;2.80;;;2.60;;
9422;SDS011;4750;49.506;10.400;2022-08-14T16:59:31;2.63;;;2.43;;
9422;SDS011;4750;49.506;10.400;2022-08-14T17:02:16;2.50;;;2.30;;
9422;SDS011;4750;49.506;10.400;2022-08-14T17:05:19;2.60;;;2.40;;